createdAt,value
2023-04-23T00:01:05.615Z,4.67
2023-04-23T00:04:09.458Z,4.82
2023-04-23T00:07:14.175Z,4.60
2023-04-23T00:10:16.857Z,4.68
2023-04-23T00:13:19.502Z,4.90
2023-04-23T00:16:22.258Z,5.45
2023-04-23T00:19:24.767Z,4.65
2023-04-23T00:22:27.653Z,4.00
2023-04-23T00:25:30.283Z,4.13
2023-04-23T00:28:32.700Z,4.40
2023-04-23T00:31:35.310Z,4.10
2023-04-23T00:34:37.840Z,4.55
2023-04-23T00:37:40.279Z,4.75
2023-04-23T00:40:47.597Z,5.10
2023-04-23T00:43:53.313Z,4.95
2023-04-23T00:46:55.984Z,5.10
2023-04-23T00:49:59.900Z,4.93
2023-04-23T00:53:02.591Z,4.60
2023-04-23T00:56:05.760Z,5.03
2023-04-23T00:59:08.472Z,5.00
2023-04-23T01:02:11.166Z,4.70
2023-04-23T01:05:16.010Z,4.80
2023-04-23T01:08:18.814Z,4.63
2023-04-23T01:11:21.397Z,4.95
2023-04-23T01:14:24.008Z,4.47
2023-04-23T01:17:27.125Z,5.55
2023-04-23T01:20:29.809Z,5.18
2023-04-23T01:23:32.996Z,5.10
2023-04-23T01:26:35.539Z,5.03
2023-04-23T01:29:39.635Z,4.90
2023-04-23T01:32:43.350Z,5.13
2023-04-23T01:35:47.593Z,5.30
2023-04-23T01:38:50.305Z,4.47
2023-04-23T01:41:54.005Z,5.30
2023-04-23T01:44:56.389Z,4.90
2023-04-23T01:48:00.554Z,5.40
2023-04-23T01:51:03.601Z,4.63
2023-04-23T01:54:06.270Z,5.23
2023-04-23T01:57:09.863Z,5.00
2023-04-23T02:00:14.742Z,5.30
2023-04-23T02:03:17.592Z,4.93
2023-04-23T02:06:20.140Z,4.68
2023-04-23T02:09:22.935Z,4.30
2023-04-23T02:12:26.795Z,4.47
2023-04-23T02:15:30.059Z,4.60
2023-04-23T02:18:32.466Z,4.68
2023-04-23T02:21:35.811Z,3.85
2023-04-23T02:24:39.192Z,3.87
2023-04-23T02:27:42.209Z,3.35
2023-04-23T02:30:47.862Z,3.92
2023-04-23T02:33:50.382Z,4.17
2023-04-23T02:36:52.832Z,3.95
2023-04-23T02:39:55.630Z,3.83
2023-04-23T02:42:58.015Z,4.35
2023-04-23T02:46:00.666Z,3.75
2023-04-23T02:49:04.773Z,3.97
2023-04-23T02:52:08.073Z,3.60
2023-04-23T02:55:11.030Z,3.50
2023-04-23T02:58:13.806Z,3.83
2023-04-23T03:01:18.706Z,4.18
2023-04-23T03:04:21.653Z,3.80
2023-04-23T03:07:25.008Z,3.75
2023-04-23T03:10:27.439Z,4.57
2023-04-23T03:13:29.904Z,3.97
2023-04-23T03:16:32.647Z,4.32
2023-04-23T03:19:36.303Z,4.35
2023-04-23T03:22:39.213Z,4.65
2023-04-23T03:25:42.084Z,4.30
2023-04-23T03:28:44.561Z,4.95
2023-04-23T03:31:47.037Z,4.68
2023-04-23T03:34:49.560Z,5.27
2023-04-23T03:37:52.651Z,4.90
2023-04-23T03:40:55.389Z,5.78
2023-04-23T03:43:57.892Z,4.90
2023-04-23T03:47:14.969Z,4.78
2023-04-23T03:50:17.683Z,5.43
2023-04-23T03:53:24.159Z,4.70
2023-04-23T03:56:45.007Z,4.93
2023-04-23T03:59:57.118Z,5.63
2023-04-23T04:03:02.225Z,4.90
2023-04-23T04:06:05.094Z,5.23
2023-04-23T04:09:08.399Z,5.70
2023-04-23T04:12:10.813Z,5.50
2023-04-23T04:15:14.037Z,5.22
2023-04-23T04:18:16.484Z,4.78
2023-04-23T04:21:19.164Z,3.85
2023-04-23T04:24:23.670Z,4.53
2023-04-23T04:27:27.713Z,3.93
2023-04-23T04:30:30.319Z,4.25
2023-04-23T04:33:34.350Z,4.63
2023-04-23T04:36:36.770Z,5.20
2023-04-23T04:39:39.225Z,5.05
2023-04-23T04:42:42.695Z,4.85
2023-04-23T04:45:45.163Z,4.20
2023-04-23T04:48:48.307Z,5.18
2023-04-23T04:51:51.367Z,4.70
2023-04-23T04:54:53.741Z,5.07
2023-04-23T04:57:56.166Z,4.83
2023-04-23T05:00:59.684Z,5.20
2023-04-23T05:04:02.379Z,5.38
2023-04-23T05:07:04.946Z,6.00
2023-04-23T05:10:07.648Z,5.57
2023-04-23T05:13:10.380Z,5.55
2023-04-23T05:16:13.074Z,4.70
2023-04-23T05:19:15.583Z,5.25
2023-04-23T05:22:18.416Z,5.55
2023-04-23T05:25:21.019Z,5.93
2023-04-23T05:28:23.520Z,6.40
2023-04-23T05:31:28.145Z,6.28
2023-04-23T05:34:31.750Z,5.50
2023-04-23T05:37:34.451Z,5.27
2023-04-23T05:40:39.143Z,5.30
2023-04-23T05:43:41.813Z,4.63
2023-04-23T05:46:44.241Z,4.82
2023-04-23T05:49:46.728Z,5.32
2023-04-23T05:52:49.487Z,5.18
2023-04-23T05:55:51.831Z,5.72
2023-04-23T05:58:54.558Z,5.10
2023-04-23T06:01:56.986Z,5.30
2023-04-23T06:04:59.762Z,4.28
2023-04-23T06:08:02.239Z,4.87
2023-04-23T06:11:06.066Z,4.55
2023-04-23T06:14:09.065Z,5.30
2023-04-23T06:17:11.486Z,4.10
2023-04-23T06:20:13.861Z,5.00
2023-04-23T06:23:16.419Z,5.10
2023-04-23T06:26:18.820Z,4.53
2023-04-23T06:29:23.148Z,4.20
2023-04-23T06:32:38.160Z,4.57
2023-04-23T06:35:40.625Z,4.68
2023-04-23T06:38:44.652Z,5.17
2023-04-23T06:41:47.142Z,4.63
2023-04-23T06:44:59.637Z,5.18
2023-04-23T06:48:02.094Z,4.82
2023-04-23T06:51:06.039Z,5.05
2023-04-23T06:54:08.476Z,9.45
2023-04-23T06:57:11.142Z,4.50
2023-04-23T07:00:13.937Z,4.80
2023-04-23T07:03:18.024Z,5.45
2023-04-23T07:06:20.809Z,4.82
2023-04-23T07:09:23.396Z,6.00
2023-04-23T07:12:25.879Z,5.72
2023-04-23T07:15:28.437Z,5.70
2023-04-23T07:18:31.147Z,4.95
2023-04-23T07:21:33.638Z,5.40
2023-04-23T07:24:36.053Z,5.65
2023-04-23T07:27:38.641Z,5.53
2023-04-23T07:30:42.761Z,4.80
2023-04-23T07:33:45.572Z,5.18
2023-04-23T07:36:48.087Z,5.25
2023-04-23T07:39:50.662Z,5.80
2023-04-23T07:42:53.151Z,4.60
2023-04-23T07:45:55.598Z,5.60
2023-04-23T07:48:58.000Z,5.55
2023-04-23T07:52:00.381Z,5.40
2023-04-23T07:55:03.110Z,5.65
2023-04-23T07:58:05.543Z,5.10
2023-04-23T08:01:08.075Z,5.53
2023-04-23T08:04:12.042Z,8.07
2023-04-23T08:07:14.654Z,5.93
2023-04-23T08:10:17.131Z,5.17
2023-04-23T08:13:19.814Z,7.70
2023-04-23T08:16:22.310Z,5.53
2023-04-23T08:19:25.883Z,5.60
2023-04-23T08:22:28.653Z,5.18
2023-04-23T08:25:32.655Z,6.03
2023-04-23T08:28:35.516Z,5.75
2023-04-23T08:31:38.122Z,6.03
2023-04-23T08:34:40.668Z,6.57
2023-04-23T08:37:52.044Z,6.55
2023-04-23T08:40:57.583Z,6.17
2023-04-23T08:44:02.757Z,8.77
2023-04-23T08:47:06.527Z,8.32
2023-04-23T08:50:12.493Z,8.30
2023-04-23T08:53:19.698Z,6.80
2023-04-23T08:56:24.235Z,9.63
2023-04-23T08:59:27.378Z,5.03
2023-04-23T09:02:30.163Z,5.57
2023-04-23T09:05:32.829Z,6.00
2023-04-23T09:08:35.757Z,4.80
2023-04-23T09:11:38.380Z,5.23
2023-04-23T09:14:41.061Z,4.82
2023-04-23T09:17:46.276Z,4.50
2023-04-23T09:20:50.231Z,5.30
2023-04-23T09:23:52.691Z,6.15
2023-04-23T09:26:55.082Z,5.57
2023-04-23T09:29:59.579Z,7.18
2023-04-23T09:33:05.304Z,4.73
2023-04-23T09:36:13.949Z,5.18
2023-04-23T09:39:18.658Z,5.15
2023-04-23T09:42:24.001Z,5.73
2023-04-23T09:45:26.659Z,5.60
2023-04-23T09:48:41.686Z,4.70
2023-04-23T09:51:46.830Z,4.65
2023-04-23T09:54:49.352Z,5.47
2023-04-23T09:57:53.191Z,5.05
2023-04-23T10:01:06.599Z,5.38
2023-04-23T10:04:13.010Z,4.70
2023-04-23T10:07:20.207Z,5.25
2023-04-23T10:10:24.418Z,4.20
2023-04-23T10:13:28.050Z,4.30
2023-04-23T10:16:38.876Z,3.72
2023-04-23T10:19:52.239Z,4.68
2023-04-23T10:22:57.537Z,4.88
2023-04-23T10:26:01.560Z,3.50
2023-04-23T10:29:08.394Z,4.05
2023-04-23T10:32:12.746Z,3.85
2023-04-23T10:35:15.216Z,3.90
2023-04-23T10:38:18.206Z,3.00
2023-04-23T10:41:25.060Z,3.90
2023-04-23T10:47:45.148Z,3.33
2023-04-23T10:51:09.544Z,3.75
2023-04-23T10:54:21.606Z,3.45
2023-04-23T10:57:24.078Z,3.37
2023-04-23T11:00:28.184Z,3.95
2023-04-23T11:03:43.942Z,3.60
2023-04-23T11:06:49.434Z,3.27
2023-04-23T11:09:53.736Z,3.33
2023-04-23T11:12:56.434Z,3.92
2023-04-23T11:16:22.330Z,4.90
2023-04-23T11:19:25.042Z,4.40
2023-04-23T11:22:34.652Z,3.83
2023-04-23T11:25:39.394Z,4.03
2023-04-23T11:28:43.688Z,4.70
2023-04-23T11:32:00.861Z,3.72
2023-04-23T11:35:07.692Z,4.00
2023-04-23T11:38:11.140Z,3.77
2023-04-23T11:41:13.937Z,4.20
2023-04-23T11:44:16.653Z,4.18
2023-04-23T11:47:19.202Z,4.30
2023-04-23T11:50:26.573Z,4.15
2023-04-23T11:53:29.007Z,3.97
2023-04-23T11:56:32.130Z,3.97
2023-04-23T11:59:34.909Z,4.30
2023-04-23T12:02:37.465Z,4.55
2023-04-23T12:05:42.522Z,4.15
2023-04-23T12:08:47.213Z,3.97
2023-04-23T12:11:52.981Z,4.00
2023-04-23T12:15:07.093Z,3.67
2023-04-23T12:18:10.179Z,4.07
2023-04-23T12:21:13.506Z,4.03
2023-04-23T12:24:16.282Z,3.58
2023-04-23T12:27:20.553Z,4.22
2023-04-23T12:30:23.654Z,4.35
2023-04-23T12:33:29.310Z,4.07
2023-04-23T12:36:32.448Z,4.28
2023-04-23T12:39:35.577Z,3.22
2023-04-23T12:42:38.585Z,3.10
2023-04-23T12:45:41.100Z,3.58
2023-04-23T12:48:43.620Z,3.85
2023-04-23T12:51:46.056Z,4.07
2023-04-23T12:54:52.226Z,3.47
2023-04-23T12:57:54.676Z,3.95
2023-04-23T13:00:57.138Z,3.40
2023-04-23T13:03:59.863Z,3.50
2023-04-23T13:07:02.759Z,3.80
2023-04-23T13:10:05.826Z,3.30
2023-04-23T13:13:08.516Z,3.37
2023-04-23T13:16:11.772Z,3.08
2023-04-23T13:19:14.444Z,3.20
2023-04-23T13:22:17.081Z,3.42
2023-04-23T13:25:19.512Z,3.65
2023-04-23T13:28:21.988Z,2.97
2023-04-23T13:31:24.835Z,3.50
2023-04-23T13:34:27.349Z,3.20
2023-04-23T13:37:31.527Z,3.50
2023-04-23T13:40:35.498Z,3.08
2023-04-23T13:43:37.986Z,2.97
2023-04-23T13:46:40.545Z,3.42
2023-04-23T13:49:43.443Z,3.03
2023-04-23T13:52:45.932Z,3.13
2023-04-23T13:55:48.574Z,2.72
2023-04-23T13:58:52.970Z,2.75
2023-04-23T14:01:55.385Z,3.08
2023-04-23T14:04:58.547Z,2.53
2023-04-23T14:08:01.105Z,3.17
2023-04-23T14:11:04.606Z,2.80
2023-04-23T14:14:07.586Z,2.80
2023-04-23T14:17:10.026Z,2.90
2023-04-23T14:20:15.603Z,2.92
2023-04-23T14:23:23.956Z,3.10
2023-04-23T14:26:47.457Z,2.60
2023-04-23T14:29:56.616Z,2.97
2023-04-23T14:32:59.176Z,2.90
2023-04-23T14:36:01.736Z,2.73
2023-04-23T14:39:07.238Z,2.30
2023-04-23T14:42:09.831Z,2.85
2023-04-23T14:45:13.997Z,2.80
2023-04-23T14:48:16.709Z,2.35
2023-04-23T14:51:19.162Z,2.88
2023-04-23T14:54:22.850Z,2.83
2023-04-23T14:57:25.432Z,2.70
2023-04-23T15:00:30.239Z,2.30
2023-04-23T15:03:32.970Z,2.90
2023-04-23T15:06:35.666Z,2.30
2023-04-23T15:09:38.073Z,2.92
2023-04-23T15:12:40.575Z,2.30
2023-04-23T15:16:00.118Z,2.00
2023-04-23T15:19:06.481Z,2.35
2023-04-23T15:22:08.937Z,2.38
2023-04-23T15:25:11.611Z,2.60
2023-04-23T15:28:13.999Z,2.20
2023-04-23T15:31:16.581Z,2.08
2023-04-23T15:34:18.990Z,2.55
2023-04-23T15:37:23.583Z,2.10
2023-04-23T15:40:28.084Z,2.22
2023-04-23T15:43:30.545Z,2.55
2023-04-23T15:46:32.981Z,2.27
2023-04-23T15:49:35.674Z,2.08
2023-04-23T15:52:38.403Z,1.95
2023-04-23T15:55:40.942Z,2.30
2023-04-23T15:58:43.576Z,2.30
2023-04-23T16:01:46.203Z,2.30
2023-04-23T16:04:50.972Z,2.13
2023-04-23T16:07:53.442Z,2.40
2023-04-23T16:10:57.124Z,2.30
2023-04-23T16:13:59.595Z,2.13
2023-04-23T16:17:01.955Z,2.03
2023-04-23T16:20:05.036Z,2.20
2023-04-23T16:23:07.465Z,2.03
2023-04-23T16:26:11.217Z,2.17
2023-04-23T16:32:19.788Z,2.60
2023-04-23T16:35:22.347Z,2.13
2023-04-23T16:38:25.542Z,3.10
2023-04-23T16:41:28.028Z,2.30
2023-04-23T16:44:30.803Z,2.28
2023-04-23T16:47:33.757Z,2.57
2023-04-23T16:50:36.223Z,2.47
2023-04-23T16:53:39.232Z,2.03
2023-04-23T16:56:44.622Z,2.28
2023-04-23T16:59:47.006Z,2.17
2023-04-23T17:02:49.821Z,2.50
2023-04-23T17:06:00.070Z,2.97
2023-04-23T17:09:05.250Z,3.07
2023-04-23T17:12:07.738Z,2.47
2023-04-23T17:15:10.773Z,3.17
2023-04-23T17:18:13.614Z,2.80
2023-04-23T17:21:16.134Z,2.50
2023-04-23T17:24:18.787Z,3.00
2023-04-23T17:27:21.382Z,11.77
2023-04-23T17:30:24.536Z,12.57
2023-04-23T17:33:27.198Z,5.93
2023-04-23T17:36:29.929Z,5.57
2023-04-23T17:39:32.516Z,4.40
2023-04-23T17:42:35.246Z,4.68
2023-04-23T17:45:37.873Z,4.72
2023-04-23T17:48:41.208Z,9.90
2023-04-23T17:51:44.357Z,10.05
2023-04-23T17:54:46.992Z,12.95
2023-04-23T17:57:50.479Z,10.70
2023-04-23T18:00:53.077Z,6.07
2023-04-23T18:03:56.174Z,8.57
2023-04-23T18:06:59.316Z,10.93
2023-04-23T18:10:03.383Z,7.97
2023-04-23T18:13:09.162Z,11.85
2023-04-23T18:16:11.976Z,9.30
2023-04-23T18:19:14.601Z,7.53
2023-04-23T18:22:17.831Z,6.70
2023-04-23T18:25:20.727Z,8.55
2023-04-23T18:28:23.521Z,9.82
2023-04-23T18:31:26.999Z,6.82
2023-04-23T18:34:37.772Z,7.10
2023-04-23T18:37:48.478Z,9.60
2023-04-23T18:40:51.373Z,11.07
2023-04-23T18:43:55.217Z,10.85
2023-04-23T18:46:58.088Z,9.48
2023-04-23T18:50:02.991Z,11.23
2023-04-23T18:53:05.833Z,7.78
2023-04-23T18:56:08.505Z,8.68
2023-04-23T18:59:11.578Z,9.88
2023-04-23T19:02:21.435Z,9.45
2023-04-23T19:05:33.318Z,9.18
2023-04-23T19:08:36.602Z,10.18
2023-04-23T19:11:39.374Z,9.60
2023-04-23T19:14:41.800Z,11.38
2023-04-23T19:17:44.234Z,11.18
2023-04-23T19:20:47.050Z,11.03
2023-04-23T19:23:51.727Z,10.73
2023-04-23T19:26:54.378Z,9.07
2023-04-23T19:29:57.095Z,9.52
2023-04-23T19:33:00.195Z,9.13
2023-04-23T19:36:02.947Z,9.93
2023-04-23T19:39:06.976Z,17.52
2023-04-23T19:42:10.759Z,13.90
2023-04-23T19:45:15.454Z,19.75
2023-04-23T19:48:18.137Z,20.30
2023-04-23T19:51:24.935Z,21.67
2023-04-23T19:54:27.609Z,14.43
2023-04-23T19:57:30.420Z,12.30
2023-04-23T20:00:39.109Z,8.90
2023-04-23T20:03:43.653Z,5.30
2023-04-23T20:06:46.775Z,4.35
2023-04-23T20:09:49.509Z,4.95
2023-04-23T20:12:51.906Z,4.57
2023-04-23T20:15:54.339Z,5.03
2023-04-23T20:18:57.745Z,6.35
2023-04-23T20:22:07.964Z,7.17
2023-04-23T20:25:11.209Z,6.82
2023-04-23T20:28:13.869Z,4.47
2023-04-23T20:31:16.453Z,4.38
2023-04-23T20:34:18.990Z,4.13
2023-04-23T20:37:21.736Z,4.18
2023-04-23T20:40:25.329Z,3.80
2023-04-23T20:43:30.536Z,3.93
2023-04-23T20:46:33.066Z,4.72
2023-04-23T20:49:35.618Z,3.95
2023-04-23T20:52:38.125Z,4.23
2023-04-23T20:55:40.600Z,4.65
2023-04-23T20:58:43.464Z,4.70
2023-04-23T21:01:46.374Z,4.55
2023-04-23T21:04:48.772Z,4.50
2023-04-23T21:07:51.291Z,4.10
2023-04-23T21:10:53.823Z,4.40
2023-04-23T21:13:57.033Z,4.87
2023-04-23T21:17:00.580Z,6.75
2023-04-23T21:20:04.965Z,5.40
2023-04-23T21:23:07.541Z,4.17
2023-04-23T21:26:09.948Z,4.63
2023-04-23T21:29:12.371Z,5.00
2023-04-23T21:32:15.819Z,4.40
2023-04-23T21:35:18.667Z,4.47
2023-04-23T21:38:21.509Z,4.50
2023-04-23T21:41:24.578Z,4.32
2023-04-23T21:44:28.646Z,4.13
2023-04-23T21:47:31.139Z,5.00
2023-04-23T21:50:33.931Z,5.00
2023-04-23T21:53:36.337Z,4.87
2023-04-23T21:56:38.842Z,4.50
2023-04-23T21:59:41.839Z,4.35
2023-04-23T22:02:47.268Z,4.65
2023-04-23T22:05:52.249Z,5.55
2023-04-23T22:08:55.943Z,4.53
2023-04-23T22:12:02.472Z,5.22
2023-04-23T22:15:10.935Z,6.13
2023-04-23T22:18:13.469Z,7.45
2023-04-23T22:21:15.868Z,8.55
2023-04-23T22:24:18.246Z,9.63
2023-04-23T22:27:20.797Z,8.43
2023-04-23T22:30:23.330Z,8.60
2023-04-23T22:33:27.386Z,8.90
2023-04-23T22:36:29.837Z,8.90
2023-04-23T22:39:32.735Z,8.52
2023-04-23T22:42:35.688Z,9.27
2023-04-23T22:45:38.190Z,7.70
2023-04-23T22:48:44.715Z,8.05
2023-04-23T22:51:47.778Z,6.55
2023-04-23T22:54:50.465Z,6.77
2023-04-23T22:57:52.855Z,6.15
2023-04-23T23:00:55.579Z,5.30
2023-04-23T23:03:58.547Z,4.85
2023-04-23T23:07:01.403Z,4.85
2023-04-23T23:10:04.302Z,5.20
2023-04-23T23:13:06.765Z,5.10
2023-04-23T23:16:09.335Z,4.57
2023-04-23T23:19:12.671Z,4.30
2023-04-23T23:22:15.080Z,4.78
2023-04-23T23:25:17.907Z,4.70
2023-04-23T23:28:20.541Z,5.32
2023-04-23T23:31:26.065Z,4.40
2023-04-23T23:34:28.665Z,5.50
2023-04-23T23:37:31.124Z,5.13
2023-04-23T23:40:33.601Z,4.70
2023-04-23T23:43:36.031Z,5.03
2023-04-23T23:46:42.248Z,4.27
2023-04-23T23:49:44.770Z,4.55
2023-04-23T23:52:47.281Z,4.50
2023-04-23T23:55:49.658Z,5.07
2023-04-23T23:58:52.042Z,4.63
